sensor_id;sensor_type;location;lat;lon;timestamp;pressure;altitude;pressure_sealevel;temperature;humidity
64844;BME280;51310;52.198;5.422;2022-12-20T00:01:26;101032.56;;;8.13;100.00
64844;BME280;51310;52.198;5.422;2022-12-20T00:03:56;101024.09;;;8.14;100.00
64844;BME280;51310;52.198;5.422;2022-12-20T00:06:25;101019.56;;;8.11;100.00
64844;BME280;51310;52.198;5.422;2022-12-20T00:09:00;101016.28;;;8.12;100.00
64844;BME280;51310;52.198;5.422;2022-12-20T00:11:27;101018.94;;;8.21;100.00
64844;BME280;51310;52.198;5.422;2022-12-20T00:13:54;101015.19;;;8.26;100.00
64844;BME280;51310;52.198;5.422;2022-12-20T00:16:26;101017.19;;;8.29;100.00
64844;BME280;51310;52.198;5.422;2022-12-20T00:18:56;101020.91;;;8.24;100.00
64844;BME280;51310;52.198;5.422;2022-12-20T00:21:27;101021.81;;;8.24;100.00
64844;BME280;51310;52.198;5.422;2022-12-20T00:23:53;101025.72;;;8.36;100.00
64844;BME280;51310;52.198;5.422;2022-12-20T00:26:24;101023.88;;;8.35;100.00
64844;BME280;51310;52.198;5.422;2022-12-20T00:28:51;101024.00;;;8.44;100.00
64844;BME280;51310;52.198;5.422;2022-12-20T00:31:20;101016.97;;;8.50;100.00
64844;BME280;51310;52.198;5.422;2022-12-20T00:33:49;101009.03;;;8.56;100.00
64844;BME280;51310;52.198;5.422;2022-12-20T00:36:17;101007.59;;;8.67;100.00
64844;BME280;51310;52.198;5.422;2022-12-20T00:38:45;101023.50;;;8.71;100.00
64844;BME280;51310;52.198;5.422;2022-12-20T00:41:23;101009.59;;;8.69;100.00
64844;BME280;51310;52.198;5.422;2022-12-20T00:43:51;101005.28;;;8.77;100.00
64844;BME280;51310;52.198;5.422;2022-12-20T00:46:19;101002.19;;;8.72;100.00
64844;BME280;51310;52.198;5.422;2022-12-20T00:48:46;101011.16;;;8.76;100.00
64844;BME280;51310;52.198;5.422;2022-12-20T00:51:19;100991.50;;;8.76;100.00
64844;BME280;51310;52.198;5.422;2022-12-20T00:53:47;101006.59;;;8.73;100.00
64844;BME280;51310;52.198;5.422;2022-12-20T00:56:13;101013.72;;;8.76;100.00
64844;BME280;51310;52.198;5.422;2022-12-20T00:58:41;101024.28;;;8.79;100.00
64844;BME280;51310;52.198;5.422;2022-12-20T01:01:19;101022.66;;;8.79;100.00
64844;BME280;51310;52.198;5.422;2022-12-20T01:03:47;101014.63;;;8.76;100.00
64844;BME280;51310;52.198;5.422;2022-12-20T01:06:14;101007.25;;;8.79;100.00
64844;BME280;51310;52.198;5.422;2022-12-20T01:08:40;101012.88;;;8.84;100.00
64844;BME280;51310;52.198;5.422;2022-12-20T01:11:29;101013.78;;;8.85;100.00
64844;BME280;51310;52.198;5.422;2022-12-20T01:14:05;101013.59;;;8.83;100.00
64844;BME280;51310;52.198;5.422;2022-12-20T01:16:43;101006.97;;;8.85;100.00
64844;BME280;51310;52.198;5.422;2022-12-20T01:19:16;101000.78;;;8.83;100.00
64844;BME280;51310;52.198;5.422;2022-12-20T01:21:43;101008.47;;;8.83;100.00
64844;BME280;51310;52.198;5.422;2022-12-20T01:24:19;100994.91;;;8.84;100.00
64844;BME280;51310;52.198;5.422;2022-12-20T01:26:46;101000.88;;;8.76;100.00
64844;BME280;51310;52.198;5.422;2022-12-20T01:29:12;100999.97;;;8.75;100.00
64844;BME280;51310;52.198;5.422;2022-12-20T01:31:39;101001.94;;;8.78;100.00
64844;BME280;51310;52.198;5.422;2022-12-20T01:34:05;100993.34;;;8.77;100.00
64844;BME280;51310;52.198;5.422;2022-12-20T01:36:34;100992.69;;;8.71;100.00
64844;BME280;51310;52.198;5.422;2022-12-20T01:39:10;100998.25;;;8.67;100.00
64844;BME280;51310;52.198;5.422;2022-12-20T01:41:39;100992.16;;;8.58;100.00
64844;BME280;51310;52.198;5.422;2022-12-20T01:46:45;100992.97;;;8.50;100.00
64844;BME280;51310;52.198;5.422;2022-12-20T01:52:01;100985.75;;;8.38;100.00
64844;BME280;51310;52.198;5.422;2022-12-20T01:54:44;100980.69;;;8.31;100.00
64844;BME280;51310;52.198;5.422;2022-12-20T01:57:23;100983.69;;;8.27;100.00
64844;BME280;51310;52.198;5.422;2022-12-20T01:59:54;100982.28;;;8.22;100.00
64844;BME280;51310;52.198;5.422;2022-12-20T02:02:20;100974.28;;;8.19;100.00
64844;BME280;51310;52.198;5.422;2022-12-20T02:04:47;100964.44;;;8.15;100.00
64844;BME280;51310;52.198;5.422;2022-12-20T02:07:20;100960.44;;;8.10;100.00
64844;BME280;51310;52.198;5.422;2022-12-20T02:09:49;100958.31;;;8.06;100.00
64844;BME280;51310;52.198;5.422;2022-12-20T02:12:22;100965.47;;;8.01;100.00
64844;BME280;51310;52.198;5.422;2022-12-20T02:14:55;100965.66;;;8.02;100.00
64844;BME280;51310;52.198;5.422;2022-12-20T02:18:21;100959.44;;;8.00;100.00
64844;BME280;51310;52.198;5.422;2022-12-20T02:21:37;100940.84;;;7.94;100.00
64844;BME280;51310;52.198;5.422;2022-12-20T02:24:47;100946.13;;;7.96;100.00
64844;BME280;51310;52.198;5.422;2022-12-20T02:28:00;100941.00;;;7.96;100.00
64844;BME280;51310;52.198;5.422;2022-12-20T02:30:37;100937.72;;;7.97;100.00
64844;BME280;51310;52.198;5.422;2022-12-20T02:33:09;100940.09;;;7.95;100.00
64844;BME280;51310;52.198;5.422;2022-12-20T02:35:38;100937.53;;;7.95;100.00
64844;BME280;51310;52.198;5.422;2022-12-20T02:38:33;100948.22;;;7.91;100.00
64844;BME280;51310;52.198;5.422;2022-12-20T02:41:08;100950.94;;;7.93;100.00
64844;BME280;51310;52.198;5.422;2022-12-20T02:43:40;100941.59;;;7.93;100.00
64844;BME280;51310;52.198;5.422;2022-12-20T02:46:26;100934.81;;;7.94;100.00
64844;BME280;51310;52.198;5.422;2022-12-20T02:48:58;100936.47;;;7.93;100.00
64844;BME280;51310;52.198;5.422;2022-12-20T02:51:29;100940.44;;;7.98;100.00
64844;BME280;51310;52.198;5.422;2022-12-20T02:53:58;100928.69;;;8.00;100.00
64844;BME280;51310;52.198;5.422;2022-12-20T02:56:47;100929.44;;;7.99;100.00
64844;BME280;51310;52.198;5.422;2022-12-20T02:59:21;100931.06;;;7.99;100.00
64844;BME280;51310;52.198;5.422;2022-12-20T03:01:54;100927.63;;;7.98;100.00
64844;BME280;51310;52.198;5.422;2022-12-20T03:04:27;100934.00;;;8.02;100.00
64844;BME280;51310;52.198;5.422;2022-12-20T03:07:05;100933.81;;;8.00;100.00
64844;BME280;51310;52.198;5.422;2022-12-20T03:09:37;100931.06;;;7.99;100.00
64844;BME280;51310;52.198;5.422;2022-12-20T03:12:05;100926.53;;;7.96;100.00
64844;BME280;51310;52.198;5.422;2022-12-20T03:14:32;100923.66;;;7.93;100.00
64844;BME280;51310;52.198;5.422;2022-12-20T03:16:58;100916.47;;;7.98;100.00
64844;BME280;51310;52.198;5.422;2022-12-20T03:19:24;100921.28;;;7.95;100.00
64844;BME280;51310;52.198;5.422;2022-12-20T03:21:50;100931.16;;;7.92;100.00
64844;BME280;51310;52.198;5.422;2022-12-20T03:24:16;100933.72;;;7.92;100.00
64844;BME280;51310;52.198;5.422;2022-12-20T03:26:42;100920.75;;;7.90;100.00
64844;BME280;51310;52.198;5.422;2022-12-20T03:29:09;100917.63;;;7.93;100.00
64844;BME280;51310;52.198;5.422;2022-12-20T03:31:35;100919.13;;;7.91;100.00
64844;BME280;51310;52.198;5.422;2022-12-20T03:34:02;100924.25;;;7.91;100.00
64844;BME280;51310;52.198;5.422;2022-12-20T03:36:28;100915.63;;;7.90;100.00
64844;BME280;51310;52.198;5.422;2022-12-20T03:38:55;100924.25;;;7.91;100.00
64844;BME280;51310;52.198;5.422;2022-12-20T03:41:22;100925.63;;;7.96;100.00
64844;BME280;51310;52.198;5.422;2022-12-20T03:43:48;100923.91;;;8.04;100.00
64844;BME280;51310;52.198;5.422;2022-12-20T03:46:15;100925.47;;;8.10;100.00
64844;BME280;51310;52.198;5.422;2022-12-20T03:48:41;100913.31;;;8.16;100.00
64844;BME280;51310;52.198;5.422;2022-12-20T03:51:07;100908.69;;;8.21;100.00
64844;BME280;51310;52.198;5.422;2022-12-20T03:53:33;100920.00;;;8.23;100.00
64844;BME280;51310;52.198;5.422;2022-12-20T03:55:59;100923.31;;;8.22;100.00
64844;BME280;51310;52.198;5.422;2022-12-20T03:58:25;100900.56;;;8.25;100.00
64844;BME280;51310;52.198;5.422;2022-12-20T04:00:51;100900.72;;;8.27;100.00
64844;BME280;51310;52.198;5.422;2022-12-20T04:03:17;100904.22;;;8.27;100.00
64844;BME280;51310;52.198;5.422;2022-12-20T04:05:43;100888.81;;;8.27;100.00
64844;BME280;51310;52.198;5.422;2022-12-20T04:08:08;100890.81;;;8.30;100.00
64844;BME280;51310;52.198;5.422;2022-12-20T04:10:34;100874.06;;;8.33;100.00
64844;BME280;51310;52.198;5.422;2022-12-20T04:13:23;100882.09;;;8.36;100.00
64844;BME280;51310;52.198;5.422;2022-12-20T04:15:49;100894.44;;;8.32;100.00
64844;BME280;51310;52.198;5.422;2022-12-20T04:18:15;100893.25;;;8.37;100.00
64844;BME280;51310;52.198;5.422;2022-12-20T04:20:41;100883.53;;;8.41;100.00
64844;BME280;51310;52.198;5.422;2022-12-20T04:23:06;100877.66;;;8.43;100.00
64844;BME280;51310;52.198;5.422;2022-12-20T04:25:32;100865.56;;;8.41;100.00
64844;BME280;51310;52.198;5.422;2022-12-20T04:27:58;100870.88;;;8.43;100.00
64844;BME280;51310;52.198;5.422;2022-12-20T04:30:24;100871.03;;;8.45;100.00
64844;BME280;51310;52.198;5.422;2022-12-20T04:32:50;100866.03;;;8.46;100.00
64844;BME280;51310;52.198;5.422;2022-12-20T04:35:19;100866.38;;;8.49;100.00
64844;BME280;51310;52.198;5.422;2022-12-20T04:37:45;100864.13;;;8.52;100.00
64844;BME280;51310;52.198;5.422;2022-12-20T04:40:12;100856.00;;;8.56;100.00
64844;BME280;51310;52.198;5.422;2022-12-20T04:42:38;100850.72;;;8.55;100.00
64844;BME280;51310;52.198;5.422;2022-12-20T04:45:04;100855.75;;;8.62;100.00
64844;BME280;51310;52.198;5.422;2022-12-20T04:47:30;100859.53;;;8.66;100.00
64844;BME280;51310;52.198;5.422;2022-12-20T04:49:56;100860.94;;;8.71;100.00
64844;BME280;51310;52.198;5.422;2022-12-20T04:52:22;100858.84;;;8.75;100.00
64844;BME280;51310;52.198;5.422;2022-12-20T04:55:07;100863.69;;;8.81;100.00
64844;BME280;51310;52.198;5.422;2022-12-20T04:57:33;100862.53;;;8.86;100.00
64844;BME280;51310;52.198;5.422;2022-12-20T04:59:59;100859.63;;;8.83;100.00
64844;BME280;51310;52.198;5.422;2022-12-20T05:02:25;100853.78;;;8.93;100.00
64844;BME280;51310;52.198;5.422;2022-12-20T05:04:50;100840.53;;;8.97;100.00
64844;BME280;51310;52.198;5.422;2022-12-20T05:07:16;100843.41;;;9.00;100.00
64844;BME280;51310;52.198;5.422;2022-12-20T05:09:42;100845.06;;;8.99;100.00
64844;BME280;51310;52.198;5.422;2022-12-20T05:12:08;100844.59;;;8.95;100.00
64844;BME280;51310;52.198;5.422;2022-12-20T05:14:34;100843.19;;;8.90;100.00
64844;BME280;51310;52.198;5.422;2022-12-20T05:17:00;100848.03;;;8.87;100.00
64844;BME280;51310;52.198;5.422;2022-12-20T05:19:25;100840.59;;;8.81;100.00
64844;BME280;51310;52.198;5.422;2022-12-20T05:21:51;100830.03;;;8.78;100.00
64844;BME280;51310;52.198;5.422;2022-12-20T05:24:36;100831.69;;;8.77;100.00
64844;BME280;51310;52.198;5.422;2022-12-20T05:27:20;100833.91;;;8.74;100.00
64844;BME280;51310;52.198;5.422;2022-12-20T05:29:46;100826.81;;;8.72;100.00
64844;BME280;51310;52.198;5.422;2022-12-20T05:32:12;100837.66;;;8.69;100.00
64844;BME280;51310;52.198;5.422;2022-12-20T05:34:38;100821.97;;;8.66;100.00
64844;BME280;51310;52.198;5.422;2022-12-20T05:37:04;100817.75;;;8.67;100.00
64844;BME280;51310;52.198;5.422;2022-12-20T05:39:30;100822.72;;;8.65;100.00
64844;BME280;51310;52.198;5.422;2022-12-20T05:41:55;100810.78;;;8.66;100.00
64844;BME280;51310;52.198;5.422;2022-12-20T05:44:21;100806.59;;;8.66;100.00
64844;BME280;51310;52.198;5.422;2022-12-20T05:46:47;100810.94;;;8.67;100.00
64844;BME280;51310;52.198;5.422;2022-12-20T05:49:13;100814.75;;;8.71;100.00
64844;BME280;51310;52.198;5.422;2022-12-20T05:51:39;100795.13;;;8.71;100.00
64844;BME280;51310;52.198;5.422;2022-12-20T05:54:05;100787.72;;;8.74;100.00
64844;BME280;51310;52.198;5.422;2022-12-20T05:56:31;100774.75;;;8.73;100.00
64844;BME280;51310;52.198;5.422;2022-12-20T05:58:57;100774.75;;;8.73;100.00
64844;BME280;51310;52.198;5.422;2022-12-20T06:01:24;100766.28;;;8.74;100.00
64844;BME280;51310;52.198;5.422;2022-12-20T06:03:50;100772.50;;;8.76;100.00
64844;BME280;51310;52.198;5.422;2022-12-20T06:06:16;100772.31;;;8.74;100.00
64844;BME280;51310;52.198;5.422;2022-12-20T06:08:43;100763.13;;;8.76;100.00
64844;BME280;51310;52.198;5.422;2022-12-20T06:11:09;100757.28;;;8.77;100.00
64844;BME280;51310;52.198;5.422;2022-12-20T06:13:35;100741.28;;;8.80;100.00
64844;BME280;51310;52.198;5.422;2022-12-20T06:16:01;100749.44;;;8.85;100.00
64844;BME280;51310;52.198;5.422;2022-12-20T06:18:27;100758.97;;;8.86;100.00
64844;BME280;51310;52.198;5.422;2022-12-20T06:20:53;100750.50;;;8.87;100.00
64844;BME280;51310;52.198;5.422;2022-12-20T06:23:19;100774.66;;;8.89;100.00
64844;BME280;51310;52.198;5.422;2022-12-20T06:25:46;100771.50;;;8.91;100.00
64844;BME280;51310;52.198;5.422;2022-12-20T06:28:12;100775.91;;;8.92;100.00
64844;BME280;51310;52.198;5.422;2022-12-20T06:30:38;100773.19;;;8.99;100.00
64844;BME280;51310;52.198;5.422;2022-12-20T06:33:04;100774.84;;;8.99;100.00
64844;BME280;51310;52.198;5.422;2022-12-20T06:35:30;100778.16;;;8.98;100.00
64844;BME280;51310;52.198;5.422;2022-12-20T06:37:56;100773.34;;;9.01;100.00
64844;BME280;51310;52.198;5.422;2022-12-20T06:40:22;100786.66;;;9.06;100.00
64844;BME280;51310;52.198;5.422;2022-12-20T06:42:48;100776.22;;;9.04;100.00
64844;BME280;51310;52.198;5.422;2022-12-20T06:45:17;100770.19;;;9.03;100.00
64844;BME280;51310;52.198;5.422;2022-12-20T06:47:43;100771.69;;;9.01;100.00
64844;BME280;51310;52.198;5.422;2022-12-20T06:50:10;100773.19;;;8.99;100.00
64844;BME280;51310;52.198;5.422;2022-12-20T06:52:36;100781.31;;;8.95;100.00
64844;BME280;51310;52.198;5.422;2022-12-20T06:55:01;100776.97;;;8.94;100.00
64844;BME280;51310;52.198;5.422;2022-12-20T06:57:27;100772.28;;;8.99;100.00
64844;BME280;51310;52.198;5.422;2022-12-20T06:59:53;100777.25;;;8.97;100.00
64844;BME280;51310;52.198;5.422;2022-12-20T07:02:19;100779.53;;;8.94;100.00
64844;BME280;51310;52.198;5.422;2022-12-20T07:04:45;100768.19;;;8.92;100.00
64844;BME280;51310;52.198;5.422;2022-12-20T07:07:12;100762.91;;;8.99;100.00
64844;BME280;51310;52.198;5.422;2022-12-20T07:09:38;100771.06;;;8.95;100.00
64844;BME280;51310;52.198;5.422;2022-12-20T07:12:09;100776.81;;;9.01;100.00
64844;BME280;51310;52.198;5.422;2022-12-20T07:14:35;100778.06;;;9.05;100.00
64844;BME280;51310;52.198;5.422;2022-12-20T07:17:03;100777.13;;;9.04;100.00
64844;BME280;51310;52.198;5.422;2022-12-20T07:19:29;100772.16;;;9.06;100.00
64844;BME280;51310;52.198;5.422;2022-12-20T07:21:55;100775.78;;;9.08;100.00
64844;BME280;51310;52.198;5.422;2022-12-20T07:24:21;100781.97;;;9.10;100.00
64844;BME280;51310;52.198;5.422;2022-12-20T07:26:47;100779.69;;;9.13;100.00
64844;BME280;51310;52.198;5.422;2022-12-20T07:29:13;100773.22;;;9.17;100.00
64844;BME280;51310;52.198;5.422;2022-12-20T07:31:39;100781.22;;;9.20;100.00
64844;BME280;51310;52.198;5.422;2022-12-20T07:34:05;100773.69;;;9.21;100.00
64844;BME280;51310;52.198;5.422;2022-12-20T07:36:31;100775.97;;;9.27;100.00
64844;BME280;51310;52.198;5.422;2022-12-20T07:38:57;100781.56;;;9.23;100.00
64844;BME280;51310;52.198;5.422;2022-12-20T07:41:23;100777.03;;;9.20;100.00
64844;BME280;51310;52.198;5.422;2022-12-20T07:43:50;100776.72;;;9.26;100.00
64844;BME280;51310;52.198;5.422;2022-12-20T07:46:17;100781.84;;;9.26;100.00
64844;BME280;51310;52.198;5.422;2022-12-20T07:48:43;100780.06;;;9.25;100.00
64844;BME280;51310;52.198;5.422;2022-12-20T07:51:28;100785.03;;;9.23;100.00
64844;BME280;51310;52.198;5.422;2022-12-20T07:54:19;100787.59;;;9.23;100.00
64844;BME280;51310;52.198;5.422;2022-12-20T07:56:56;100785.19;;;9.25;100.00
64844;BME280;51310;52.198;5.422;2022-12-20T07:59:35;100799.69;;;9.24;100.00
64844;BME280;51310;52.198;5.422;2022-12-20T08:02:05;100792.56;;;9.22;100.00
64844;BME280;51310;52.198;5.422;2022-12-20T08:04:33;100795.75;;;9.19;100.00
64844;BME280;51310;52.198;5.422;2022-12-20T08:07:00;100795.44;;;9.16;100.00
64844;BME280;51310;52.198;5.422;2022-12-20T08:09:30;100784.53;;;9.10;100.00
64844;BME280;51310;52.198;5.422;2022-12-20T08:12:01;100798.63;;;9.14;100.00
64844;BME280;51310;52.198;5.422;2022-12-20T08:14:28;100792.09;;;9.09;100.00
64844;BME280;51310;52.198;5.422;2022-12-20T08:16:54;100785.59;;;9.03;100.00
64844;BME280;51310;52.198;5.422;2022-12-20T08:19:20;100776.22;;;9.04;100.00
64844;BME280;51310;52.198;5.422;2022-12-20T08:21:46;100773.91;;;8.98;100.00
64844;BME280;51310;52.198;5.422;2022-12-20T08:24:12;100776.66;;;9.00;100.00
64844;BME280;51310;52.198;5.422;2022-12-20T08:26:41;100767.88;;;8.98;100.00
64844;BME280;51310;52.198;5.422;2022-12-20T08:29:07;100780.00;;;8.99;100.00
64844;BME280;51310;52.198;5.422;2022-12-20T08:31:40;100784.53;;;9.01;100.00
64844;BME280;51310;52.198;5.422;2022-12-20T08:34:08;100777.56;;;9.00;100.00
64844;BME280;51310;52.198;5.422;2022-12-20T08:36:34;100777.41;;;8.99;100.00
64844;BME280;51310;52.198;5.422;2022-12-20T08:39:06;100785.13;;;8.99;100.00
64844;BME280;51310;52.198;5.422;2022-12-20T08:41:36;100783.75;;;9.02;100.00
64844;BME280;51310;52.198;5.422;2022-12-20T08:44:03;100775.47;;;9.05;100.00
64844;BME280;51310;52.198;5.422;2022-12-20T08:46:30;100781.50;;;9.06;100.00
64844;BME280;51310;52.198;5.422;2022-12-20T08:48:56;100775.00;;;9.09;100.00
64844;BME280;51310;52.198;5.422;2022-12-20T08:51:22;100774.28;;;9.10;100.00
64844;BME280;51310;52.198;5.422;2022-12-20T08:53:47;100776.38;;;9.06;100.00
64844;BME280;51310;52.198;5.422;2022-12-20T08:56:17;100776.81;;;9.01;100.00
64844;BME280;51310;52.198;5.422;2022-12-20T08:58:45;100774.84;;;8.99;100.00
64844;BME280;51310;52.198;5.422;2022-12-20T09:01:16;100769.72;;;8.99;100.00
64844;BME280;51310;52.198;5.422;2022-12-20T09:03:44;100771.34;;;8.98;100.00
64844;BME280;51310;52.198;5.422;2022-12-20T09:06:18;100771.22;;;8.97;100.00
64844;BME280;51310;52.198;5.422;2022-12-20T09:08:46;100778.47;;;8.92;100.00
64844;BME280;51310;52.198;5.422;2022-12-20T09:11:23;100771.94;;;8.87;100.00
64844;BME280;51310;52.198;5.422;2022-12-20T09:13:53;100770.88;;;8.85;100.00
64844;BME280;51310;52.198;5.422;2022-12-20T09:16:24;100767.66;;;8.79;100.00
64844;BME280;51310;52.198;5.422;2022-12-20T09:18:56;100771.75;;;8.77;100.00
64844;BME280;51310;52.198;5.422;2022-12-20T09:21:23;100772.50;;;8.76;100.00
64844;BME280;51310;52.198;5.422;2022-12-20T09:23:51;100780.78;;;8.73;100.00
64844;BME280;51310;52.198;5.422;2022-12-20T09:26:21;100772.94;;;8.72;100.00
64844;BME280;51310;52.198;5.422;2022-12-20T09:28:49;100770.19;;;8.70;100.00
64844;BME280;51310;52.198;5.422;2022-12-20T09:31:19;100764.16;;;8.70;100.00
64844;BME280;51310;52.198;5.422;2022-12-20T09:33:47;100770.19;;;8.70;100.00
64844;BME280;51310;52.198;5.422;2022-12-20T09:36:18;100772.63;;;8.69;100.00
64844;BME280;51310;52.198;5.422;2022-12-20T09:38:47;100773.22;;;8.66;100.00
64844;BME280;51310;52.198;5.422;2022-12-20T09:41:41;100773.53;;;8.69;100.00
64844;BME280;51310;52.198;5.422;2022-12-20T09:44:30;100784.53;;;8.68;100.00
64844;BME280;51310;52.198;5.422;2022-12-20T09:47:04;100781.22;;;8.69;100.00
64844;BME280;51310;52.198;5.422;2022-12-20T09:49:40;100782.88;;;8.69;100.00
64844;BME280;51310;52.198;5.422;2022-12-20T09:54:56;100781.88;;;8.75;100.00
64844;BME280;51310;52.198;5.422;2022-12-20T09:58:24;100779.91;;;8.73;100.00
64844;BME280;51310;52.198;5.422;2022-12-20T10:00:56;100781.69;;;8.74;100.00
64844;BME280;51310;52.198;5.422;2022-12-20T10:03:29;100785.94;;;8.73;100.00
64844;BME280;51310;52.198;5.422;2022-12-20T10:09:09;100775.66;;;8.73;100.00
64844;BME280;51310;52.198;5.422;2022-12-20T10:13:05;100774.75;;;8.73;100.00
64844;BME280;51310;52.198;5.422;2022-12-20T10:15:27;100770.69;;;8.75;100.00
64844;BME280;51310;52.198;5.422;2022-12-20T10:21:04;100766.94;;;8.80;100.00
64844;BME280;51310;52.198;5.422;2022-12-20T10:24:24;100765.44;;;8.82;100.00
64844;BME280;51310;52.198;5.422;2022-12-20T10:26:56;100768.16;;;8.83;100.00
64844;BME280;51310;52.198;5.422;2022-12-20T10:29:27;100767.72;;;8.88;100.00
64844;BME280;51310;52.198;5.422;2022-12-20T10:31:59;100764.84;;;8.85;100.00
64844;BME280;51310;52.198;5.422;2022-12-20T10:34:26;100773.00;;;8.89;100.00
64844;BME280;51310;52.198;5.422;2022-12-20T10:37:13;100770.88;;;8.94;100.00
64844;BME280;51310;52.198;5.422;2022-12-20T10:39:48;100763.34;;;8.95;100.00
64844;BME280;51310;52.198;5.422;2022-12-20T10:42:39;100762.47;;;8.95;100.00
64844;BME280;51310;52.198;5.422;2022-12-20T10:45:37;100764.13;;;8.94;100.00
64844;BME280;51310;52.198;5.422;2022-12-20T10:48:27;100756.44;;;8.94;100.00
64844;BME280;51310;52.198;5.422;2022-12-20T10:53:48;100750.22;;;8.92;100.00
64844;BME280;51310;52.198;5.422;2022-12-20T10:56:33;100741.94;;;8.95;100.00
64844;BME280;51310;52.198;5.422;2022-12-20T11:01:45;100741.63;;;9.00;100.00
64844;BME280;51310;52.198;5.422;2022-12-20T11:04:38;100741.03;;;9.03;100.00
64844;BME280;51310;52.198;5.422;2022-12-20T11:07:25;100727.28;;;9.11;100.00
64844;BME280;51310;52.198;5.422;2022-12-20T11:10:24;100728.97;;;9.11;100.00
64844;BME280;51310;52.198;5.422;2022-12-20T11:12:57;100741.63;;;9.09;100.00
64844;BME280;51310;52.198;5.422;2022-12-20T11:15:32;100732.13;;;9.08;100.00
64844;BME280;51310;52.198;5.422;2022-12-20T11:18:14;100736.38;;;9.08;100.00
64844;BME280;51310;52.198;5.422;2022-12-20T11:21:02;100729.84;;;9.11;100.00
64844;BME280;51310;52.198;5.422;2022-12-20T11:30:56;100728.06;;;9.10;100.00
64844;BME280;51310;52.198;5.422;2022-12-20T11:37:25;100719.59;;;9.11;100.00
64844;BME280;51310;52.198;5.422;2022-12-20T11:43:21;100719.59;;;9.11;100.00
64844;BME280;51310;52.198;5.422;2022-12-20T11:51:29;100726.09;;;9.08;100.00
64844;BME280;51310;52.198;5.422;2022-12-20T11:54:22;100728.66;;;9.08;100.00
64844;BME280;51310;52.198;5.422;2022-12-20T11:56:58;100715.22;;;9.10;100.00
64844;BME280;51310;52.198;5.422;2022-12-20T11:59:46;100719.00;;;9.05;100.00
64844;BME280;51310;52.198;5.422;2022-12-20T12:02:50;100714.31;;;9.10;100.00
64844;BME280;51310;52.198;5.422;2022-12-20T12:05:58;100717.63;;;9.09;100.00
64844;BME280;51310;52.198;5.422;2022-12-20T12:11:26;100713.72;;;9.12;100.00
64844;BME280;51310;52.198;5.422;2022-12-20T12:13:57;100720.34;;;9.10;100.00
64844;BME280;51310;52.198;5.422;2022-12-20T12:16:38;100711.88;;;9.11;100.00
64844;BME280;51310;52.198;5.422;2022-12-20T12:19:10;100710.25;;;9.12;100.00
64844;BME280;51310;52.198;5.422;2022-12-20T12:21:56;100706.19;;;9.14;100.00
64844;BME280;51310;52.198;5.422;2022-12-20T12:24:36;100707.25;;;9.16;100.00
64844;BME280;51310;52.198;5.422;2022-12-20T12:27:28;100702.69;;;9.13;100.00
64844;BME280;51310;52.198;5.422;2022-12-20T12:29:56;100700.88;;;9.12;100.00
64844;BME280;51310;52.198;5.422;2022-12-20T12:32:51;100707.25;;;9.16;100.00
64844;BME280;51310;52.198;5.422;2022-12-20T12:42:40;100700.44;;;9.16;100.00
64844;BME280;51310;52.198;5.422;2022-12-20T12:45:21;100710.09;;;9.19;100.00
64844;BME280;51310;52.198;5.422;2022-12-20T12:47:55;100694.41;;;9.16;100.00
64844;BME280;51310;52.198;5.422;2022-12-20T12:50:36;100707.53;;;9.19;100.00
64844;BME280;51310;52.198;5.422;2022-12-20T12:54:36;100711.16;;;9.21;100.00
64844;BME280;51310;52.198;5.422;2022-12-20T12:56:49;100715.84;;;9.25;100.00
64844;BME280;51310;52.198;5.422;2022-12-20T13:05:00;100708.44;;;9.19;100.00
64844;BME280;51310;52.198;5.422;2022-12-20T13:17:57;100709.50;;;9.21;100.00
64844;BME280;51310;52.198;5.422;2022-12-20T13:20:30;100704.69;;;9.24;100.00
64844;BME280;51310;52.198;5.422;2022-12-20T13:25:50;100704.66;;;9.16;100.00
64844;BME280;51310;52.198;5.422;2022-12-20T13:33:48;100706.19;;;9.14;100.00
64844;BME280;51310;52.198;5.422;2022-12-20T13:36:36;100701.94;;;9.14;100.00
64844;BME280;51310;52.198;5.422;2022-12-20T13:39:33;100698.47;;;9.14;100.00
64844;BME280;51310;52.198;5.422;2022-12-20T13:42:26;100711.44;;;9.15;100.00
64844;BME280;51310;52.198;5.422;2022-12-20T13:45:03;100707.25;;;9.16;100.00
64844;BME280;51310;52.198;5.422;2022-12-20T13:47:37;100712.50;;;9.17;100.00
64844;BME280;51310;52.198;5.422;2022-12-20T13:50:31;100708.75;;;9.22;100.00
64844;BME280;51310;52.198;5.422;2022-12-20T13:53:23;100702.41;;;9.19;100.00
64844;BME280;51310;52.198;5.422;2022-12-20T13:55:52;100704.19;;;9.20;100.00
64844;BME280;51310;52.198;5.422;2022-12-20T13:58:32;100704.81;;;9.17;100.00
64844;BME280;51310;52.198;5.422;2022-12-20T14:01:12;100700.44;;;9.16;100.00
64844;BME280;51310;52.198;5.422;2022-12-20T14:03:45;100709.31;;;9.20;100.00
64844;BME280;51310;52.198;5.422;2022-12-20T14:06:14;100698.03;;;9.18;100.00
64844;BME280;51310;52.198;5.422;2022-12-20T14:08:48;100718.69;;;9.19;100.00
64844;BME280;51310;52.198;5.422;2022-12-20T14:11:20;100710.56;;;9.23;100.00
64844;BME280;51310;52.198;5.422;2022-12-20T14:14:00;100701.78;;;9.21;100.00
64844;BME280;51310;52.198;5.422;2022-12-20T14:16:32;100704.06;;;9.18;100.00
64844;BME280;51310;52.198;5.422;2022-12-20T14:19:10;100700.44;;;9.16;100.00
64844;BME280;51310;52.198;5.422;2022-12-20T14:21:44;100701.50;;;9.18;100.00
64844;BME280;51310;52.198;5.422;2022-12-20T14:24:18;100703.28;;;9.19;100.00
64844;BME280;51310;52.198;5.422;2022-12-20T14:26:50;100706.75;;;9.20;100.00
64844;BME280;51310;52.198;5.422;2022-12-20T14:29:26;100704.19;;;9.20;100.00
64844;BME280;51310;52.198;5.422;2022-12-20T14:31:54;100703.16;;;9.18;100.00
64844;BME280;51310;52.198;5.422;2022-12-20T14:34:30;100712.81;;;9.20;100.00